Time;durP1;ratioP1;P1;durP2;ratioP2;P2;SDS_P1;SDS_P2;PMS_P1;PMS_P2;Temp;Humidity;BMP_temperature;BMP_pressure;BME280_temperature;BME280_humidity;BME280_pressure;Samples;Min_cycle;Max_cycle;Signal;HPM_P1;HPM_P2
2022/08/18 00:02:08;;;;;;;8.40;7.70;;;20.20;99.90;;;;;;6062698;23;20966;-67
2022/08/18 00:04:37;;;;;;;8.43;7.80;;;20.10;99.90;;;;;;6063163;23;20448;-67
2022/08/18 00:07:05;;;;;;;8.90;8.30;;;19.90;99.90;;;;;;6062685;23;20907;-67
2022/08/18 00:09:35;;;;;;;10.00;9.20;;;19.90;99.90;;;;;;6063409;23;20443;-67
2022/08/18 00:12:05;;;;;;;10.70;9.70;;;19.70;99.90;;;;;;6063232;23;20805;-67
2022/08/18 00:14:33;;;;;;;11.10;10.30;;;19.60;99.90;;;;;;6062860;23;20435;-67
2022/08/18 00:17:00;;;;;;;9.80;9.10;;;19.50;99.90;;;;;;6062756;23;20431;-67
2022/08/18 00:19:27;;;;;;;10.97;10.20;;;19.30;99.90;;;;;;6062844;23;20439;-67
2022/08/18 00:21:56;;;;;;;10.20;9.27;;;19.30;99.90;;;;;;6062718;23;20478;-68
2022/08/18 00:24:23;;;;;;;11.60;10.80;;;19.20;99.90;;;;;;6063167;23;20442;-67
2022/08/18 00:26:50;;;;;;;11.27;10.43;;;19.10;99.90;;;;;;6062521;23;20431;-67
2022/08/18 00:29:17;;;;;;;11.47;10.67;;;19.10;99.90;;;;;;6062542;23;20447;-67
2022/08/18 00:31:44;;;;;;;11.77;10.90;;;19.00;99.90;;;;;;6063116;23;20488;-67
2022/08/18 00:34:11;;;;;;;10.90;10.00;;;19.00;99.90;;;;;;6062874;23;20838;-69
2022/08/18 00:36:38;;;;;;;11.27;10.47;;;19.00;99.90;;;;;;6063132;23;20458;-67
2022/08/18 00:39:06;;;;;;;11.77;10.90;;;19.00;99.90;;;;;;6062647;23;20449;-67
2022/08/18 00:41:33;;;;;;;11.33;10.53;;;19.00;99.90;;;;;;6062780;23;20528;-67
2022/08/18 00:44:03;;;;;;;11.20;10.30;;;19.00;99.90;;;;;;6062746;23;20454;-68
2022/08/18 00:46:33;;;;;;;11.10;10.30;;;19.00;99.90;;;;;;6062339;23;20815;-68
2022/08/18 00:49:00;;;;;;;10.77;10.07;;;18.90;99.90;;;;;;6062789;23;20428;-68
2022/08/18 00:51:35;;;;;;;9.63;8.97;;;18.90;99.90;;;;;;6062353;23;20455;-68
2022/08/18 00:54:11;;;;;;;9.70;9.00;;;19.00;99.90;;;;;;6063013;23;20498;-68
2022/08/18 00:56:43;;;;;;;8.70;8.00;;;19.00;99.90;;;;;;6062460;23;20450;-67
2022/08/18 00:59:17;;;;;;;9.10;8.40;;;19.00;99.90;;;;;;6062715;23;20420;-67
2022/08/18 01:01:46;;;;;;;8.43;7.93;;;18.90;99.90;;;;;;6062868;23;20494;-68
2022/08/18 01:04:22;;;;;;;9.00;8.30;;;19.00;99.90;;;;;;6062915;23;20447;-68
2022/08/18 01:06:54;;;;;;;7.90;7.30;;;18.90;99.90;;;;;;6062327;23;20420;-68
2022/08/18 01:09:22;;;;;;;8.80;8.20;;;18.90;99.90;;;;;;6062598;23;20446;-68
2022/08/18 01:11:50;;;;;;;8.53;7.93;;;18.90;99.90;;;;;;6062505;23;20474;-68
2022/08/18 01:14:18;;;;;;;9.97;9.00;;;18.90;99.90;;;;;;6063143;23;20422;-69
2022/08/18 01:22:22;;;;;;;9.17;8.47;;;18.90;99.90;;;;;;6062782;23;20534;-69
2022/08/18 01:27:40;;;;;;;8.67;8.07;;;18.90;99.90;;;;;;6062680;23;20427;-69
2022/08/18 01:30:12;;;;;;;9.03;8.37;;;19.00;99.90;;;;;;6062473;23;20466;-69
2022/08/18 01:32:40;;;;;;;9.20;8.47;;;19.00;99.90;;;;;;6062446;23;20951;-69
2022/08/18 01:35:09;;;;;;;9.77;9.07;;;19.10;99.90;;;;;;6062538;23;20432;-69
2022/08/18 01:37:36;;;;;;;10.60;9.77;;;19.20;99.90;;;;;;6062645;23;20423;-69
2022/08/18 01:40:07;;;;;;;10.07;9.40;;;19.20;99.90;;;;;;6062334;23;20451;-69
2022/08/18 01:42:36;;;;;;;10.23;9.43;;;19.30;99.90;;;;;;6062339;23;20442;-69
2022/08/18 01:45:06;;;;;;;10.40;9.60;;;19.30;99.90;;;;;;6062334;23;20415;-69
2022/08/18 01:47:34;;;;;;;9.93;9.23;;;19.40;99.90;;;;;;6062977;23;20488;-69
2022/08/18 01:50:02;;;;;;;10.33;9.63;;;19.50;99.90;;;;;;6062546;23;20428;-69
2022/08/18 01:52:29;;;;;;;10.43;9.70;;;19.50;99.90;;;;;;6062407;23;20448;-69
2022/08/18 01:54:57;;;;;;;9.70;9.10;;;19.50;99.90;;;;;;6062120;23;20939;-69
2022/08/18 01:57:28;;;;;;;10.00;9.30;;;19.60;99.90;;;;;;6062509;23;20427;-68
2022/08/18 01:59:55;;;;;;;10.03;9.33;;;19.60;99.90;;;;;;6062185;23;20969;-69
2022/08/18 02:02:25;;;;;;;9.90;9.20;;;19.80;99.90;;;;;;6062411;23;20505;-67
2022/08/18 02:04:54;;;;;;;9.53;8.93;;;19.60;99.90;;;;;;6061970;23;20451;-67
2022/08/18 02:07:21;;;;;;;10.17;9.47;;;19.60;99.90;;;;;;6062183;23;20942;-67
2022/08/18 02:09:48;;;;;;;9.07;8.47;;;19.60;99.90;;;;;;6062247;23;20416;-67
2022/08/18 02:12:15;;;;;;;9.27;8.57;;;19.60;99.90;;;;;;6060646;23;20456;-67
2022/08/18 02:14:43;;;;;;;9.23;8.53;;;19.70;99.90;;;;;;6061856;23;20424;-67
2022/08/18 02:17:12;;;;;;;9.37;8.70;;;19.70;99.90;;;;;;6062121;23;20477;-67
2022/08/18 02:19:43;;;;;;;9.67;8.97;;;19.70;99.90;;;;;;6062119;23;20871;-67
2022/08/18 02:22:13;;;;;;;9.43;8.73;;;19.60;99.90;;;;;;6061898;23;20464;-67
2022/08/18 02:24:40;;;;;;;9.90;9.10;;;19.60;99.90;;;;;;6062078;23;20423;-67
2022/08/18 02:27:09;;;;;;;9.77;9.10;;;19.70;99.90;;;;;;6062292;23;20423;-67
2022/08/18 02:29:36;;;;;;;9.50;8.87;;;19.70;99.90;;;;;;6061897;23;20935;-67
2022/08/18 02:32:06;;;;;;;9.40;8.70;;;19.70;99.90;;;;;;6062175;23;20443;-67
2022/08/18 02:34:33;;;;;;;9.30;8.70;;;19.70;99.90;;;;;;6062290;23;20431;-67
2022/08/18 02:37:01;;;;;;;9.40;8.70;;;19.70;99.90;;;;;;6061769;23;20419;-67
2022/08/18 02:39:29;;;;;;;10.37;9.67;;;19.70;99.90;;;;;;6061712;23;20836;-67
2022/08/18 02:41:56;;;;;;;11.10;10.30;;;19.80;99.90;;;;;;6062230;23;20467;-67
2022/08/18 02:44:23;;;;;;;10.07;9.37;;;19.80;99.90;;;;;;6062069;23;20431;-67
2022/08/18 02:46:53;;;;;;;9.07;8.47;;;19.70;99.90;;;;;;6061766;23;20420;-67
2022/08/18 02:49:21;;;;;;;9.10;8.40;;;19.70;99.90;;;;;;6061946;23;20432;-66
2022/08/18 02:51:48;;;;;;;10.10;9.43;;;19.60;99.90;;;;;;6062122;23;20467;-67
2022/08/18 02:54:15;;;;;;;10.03;9.30;;;19.50;99.90;;;;;;6063655;23;20469;-67
2022/08/18 02:56:44;;;;;;;9.83;9.13;;;19.50;99.90;;;;;;6063062;23;20431;-67
2022/08/18 02:59:15;;;;;;;9.97;9.27;;;19.40;99.90;;;;;;6063271;23;20848;-66
2022/08/18 03:01:45;;;;;;;9.63;8.97;;;19.30;99.90;;;;;;6063104;23;20478;-67
2022/08/18 03:04:18;;;;;;;9.37;8.77;;;19.20;99.90;;;;;;6062836;23;20832;-67
2022/08/18 03:06:47;;;;;;;9.30;8.70;;;19.20;99.90;;;;;;6062926;23;20952;-67
2022/08/18 03:09:16;;;;;;;10.00;9.20;;;19.20;99.90;;;;;;6063562;23;20570;-67
2022/08/18 03:11:45;;;;;;;10.03;9.23;;;19.10;99.90;;;;;;6063039;23;20443;-70
2022/08/18 03:14:15;;;;;;;9.20;8.50;;;19.10;99.90;;;;;;6063434;23;20435;-69
2022/08/18 03:16:44;;;;;;;9.37;8.67;;;19.00;99.90;;;;;;6062844;23;20435;-69
2022/08/18 03:19:15;;;;;;;8.97;8.27;;;19.00;99.90;;;;;;6063322;23;20505;-69
2022/08/18 03:21:44;;;;;;;9.33;8.73;;;19.00;99.90;;;;;;6063467;23;20469;-69
2022/08/18 03:24:13;;;;;;;8.63;8.03;;;19.10;99.90;;;;;;6063625;23;20942;-67
2022/08/18 03:26:41;;;;;;;8.57;7.97;;;19.00;99.90;;;;;;6062445;23;20919;-66
2022/08/18 03:29:09;;;;;;;8.63;8.03;;;19.10;99.90;;;;;;6062535;23;20419;-67
2022/08/18 03:31:37;;;;;;;7.83;7.33;;;19.10;99.90;;;;;;6063198;23;20764;-67
2022/08/18 03:34:07;;;;;;;8.50;7.90;;;19.20;99.90;;;;;;6063238;23;20443;-67
2022/08/18 03:36:35;;;;;;;8.00;7.40;;;19.10;99.90;;;;;;6063093;23;20419;-67
2022/08/18 03:39:05;;;;;;;7.73;7.13;;;19.20;99.90;;;;;;6063122;23;20512;-67
2022/08/18 03:41:34;;;;;;;8.67;8.07;;;19.20;99.90;;;;;;6063053;23;20522;-67
2022/08/18 03:44:02;;;;;;;7.60;7.10;;;19.20;99.90;;;;;;6062661;23;21056;-67
2022/08/18 03:46:30;;;;;;;8.20;7.60;;;19.30;99.90;;;;;;6062860;23;20993;-67
2022/08/18 03:48:58;;;;;;;8.50;7.90;;;19.30;99.90;;;;;;6063261;23;20411;-68
2022/08/18 03:51:28;;;;;;;8.10;7.50;;;19.30;99.90;;;;;;6062656;23;20835;-68
2022/08/18 03:53:59;;;;;;;6.97;6.43;;;19.40;99.90;;;;;;6063220;23;20432;-68
2022/08/18 03:56:28;;;;;;;7.50;7.00;;;19.40;99.90;;;;;;6062871;23;20430;-68
2022/08/18 03:59:00;;;;;;;8.53;7.83;;;19.40;99.90;;;;;;6063350;23;20428;-68
2022/08/18 04:01:33;;;;;;;7.70;7.10;;;19.40;99.90;;;;;;6062993;23;20895;-68
2022/08/18 04:04:02;;;;;;;8.30;7.60;;;19.40;99.90;;;;;;6062370;23;20439;-68
2022/08/18 04:06:32;;;;;;;8.53;8.00;;;19.40;99.90;;;;;;6062704;23;20993;-68
2022/08/18 04:09:03;;;;;;;8.43;7.73;;;19.60;99.90;;;;;;6062790;23;20453;-68
2022/08/18 04:11:32;;;;;;;8.90;8.20;;;19.50;99.90;;;;;;6063088;23;20479;-68
2022/08/18 04:14:00;;;;;;;7.57;7.07;;;19.50;99.90;;;;;;6063141;23;20438;-68
2022/08/18 04:16:29;;;;;;;8.60;8.00;;;19.50;99.90;;;;;;6062607;23;20435;-68
2022/08/18 04:18:58;;;;;;;7.60;7.10;;;19.50;99.90;;;;;;6062566;23;20463;-68
2022/08/18 04:21:25;;;;;;;8.20;7.60;;;19.50;99.90;;;;;;6062743;23;20965;-68
2022/08/18 04:23:53;;;;;;;8.10;7.60;;;19.60;99.90;;;;;;6063166;23;20438;-68
2022/08/18 04:26:20;;;;;;;8.67;8.17;;;19.60;99.90;;;;;;6062623;23;20442;-68
2022/08/18 04:28:47;;;;;;;8.23;7.67;;;19.60;99.90;;;;;;6062818;23;20424;-68
2022/08/18 04:31:16;;;;;;;8.03;7.43;;;19.60;99.90;;;;;;6062781;23;20485;-68
2022/08/18 04:33:44;;;;;;;8.77;8.13;;;19.60;99.90;;;;;;6062719;23;20490;-68
2022/08/18 04:36:14;;;;;;;9.10;8.40;;;19.60;99.90;;;;;;6062268;23;20434;-68
2022/08/18 04:38:42;;;;;;;8.80;8.10;;;19.70;99.90;;;;;;6062815;23;20502;-68
2022/08/18 04:41:10;;;;;;;8.30;7.70;;;19.60;99.90;;;;;;6062610;23;20810;-69
2022/08/18 04:43:38;;;;;;;9.50;8.90;;;19.50;99.90;;;;;;6062983;23;20435;-68
2022/08/18 04:46:05;;;;;;;8.37;7.77;;;19.50;99.90;;;;;;6062583;23;20428;-68
2022/08/18 04:48:36;;;;;;;9.70;8.90;;;19.50;99.90;;;;;;6062036;23;20811;-68
2022/08/18 04:51:08;;;;;;;9.27;8.57;;;19.40;99.90;;;;;;6062991;23;20437;-67
2022/08/18 04:53:45;;;;;;;9.60;8.90;;;19.30;99.90;;;;;;6062761;23;20426;-68
2022/08/18 04:56:20;;;;;;;9.60;9.00;;;19.30;99.90;;;;;;6062667;23;20458;-69
2022/08/18 04:58:50;;;;;;;8.90;8.30;;;19.30;99.90;;;;;;6062698;23;20415;-69
2022/08/18 05:01:17;;;;;;;9.07;8.40;;;19.30;99.90;;;;;;6062460;23;20456;-69
2022/08/18 05:03:45;;;;;;;9.40;8.67;;;19.30;99.90;;;;;;6062981;23;20830;-70
2022/08/18 05:06:13;;;;;;;8.97;8.27;;;19.30;99.90;;;;;;6062278;23;20450;-69
2022/08/18 05:08:40;;;;;;;10.30;9.50;;;19.30;99.90;;;;;;6062824;23;20416;-69
2022/08/18 05:11:08;;;;;;;9.10;8.30;;;19.30;99.90;;;;;;6062795;23;20447;-69
2022/08/18 05:13:35;;;;;;;9.43;8.83;;;19.30;99.90;;;;;;6062285;23;20447;-69
2022/08/18 05:16:03;;;;;;;9.13;8.53;;;19.30;99.90;;;;;;6062287;23;20462;-68
2022/08/18 05:18:30;;;;;;;8.40;7.67;;;19.30;99.90;;;;;;6062581;23;20435;-68
2022/08/18 05:21:00;;;;;;;9.23;8.63;;;19.30;99.90;;;;;;6062524;23;20449;-69
2022/08/18 05:23:29;;;;;;;8.80;8.07;;;19.40;99.90;;;;;;6062223;23;20851;-69
2022/08/18 05:26:01;;;;;;;9.43;8.73;;;19.40;99.90;;;;;;6062697;23;20775;-69
2022/08/18 05:28:28;;;;;;;8.73;8.03;;;19.50;99.90;;;;;;6062700;23;20561;-69
2022/08/18 05:30:56;;;;;;;9.60;8.80;;;19.60;99.90;;;;;;6062528;23;20462;-69
2022/08/18 05:33:23;;;;;;;9.20;8.60;;;19.70;99.90;;;;;;6062667;23;20829;-68
2022/08/18 05:36:00;;;;;;;9.00;8.30;;;19.80;99.90;;;;;;6062405;23;20420;-68
2022/08/18 05:38:53;;;;;;;8.03;7.43;;;19.90;99.90;;;;;;6062307;23;20452;-69
2022/08/18 05:41:24;;;;;;;8.10;7.60;;;20.00;99.90;;;;;;6058087;23;20486;-68
2022/08/18 05:43:52;;;;;;;8.43;7.77;;;20.10;99.90;;;;;;6062568;23;20466;-69
2022/08/18 05:46:24;;;;;;;8.50;8.00;;;20.20;99.90;;;;;;6061929;23;20437;-69
2022/08/18 05:48:51;;;;;;;9.83;9.07;;;20.30;99.90;;;;;;6062380;23;20427;-69
2022/08/18 05:51:25;;;;;;;8.80;8.20;;;20.40;99.90;;;;;;6062573;23;20447;-69
2022/08/18 05:56:49;;;;;;;8.80;8.30;;;20.60;99.90;;;;;;6062010;23;20415;-68
2022/08/18 05:59:21;;;;;;;9.50;8.90;;;20.70;99.90;;;;;;6061940;23;20431;-69
2022/08/18 06:01:55;;;;;;;9.13;8.43;;;20.70;99.90;;;;;;6062446;23;20537;-69
2022/08/18 06:04:29;;;;;;;8.83;8.23;;;20.70;99.90;;;;;;6062053;23;20461;-69
2022/08/18 06:06:58;;;;;;;8.40;7.70;;;20.70;99.90;;;;;;6062059;23;20428;-69
2022/08/18 06:09:34;;;;;;;8.83;8.23;;;20.70;99.90;;;;;;6062394;23;20441;-68
2022/08/18 06:12:09;;;;;;;8.57;7.97;;;20.80;99.90;;;;;;6061642;23;20441;-68
2022/08/18 06:14:40;;;;;;;8.47;7.77;;;20.90;99.90;;;;;;6062580;23;20424;-68
2022/08/18 06:17:31;;;;;;;8.70;8.00;;;21.00;99.90;;;;;;6062093;23;20513;-68
2022/08/18 06:20:08;;;;;;;8.77;8.17;;;21.00;99.90;;;;;;6062104;23;20437;-68
2022/08/18 06:22:44;;;;;;;7.83;7.23;;;21.00;99.90;;;;;;6062379;23;20469;-68
2022/08/18 06:25:17;;;;;;;7.93;7.43;;;21.00;99.90;;;;;;6061316;23;20430;-68
2022/08/18 06:27:54;;;;;;;9.90;9.20;;;21.00;99.90;;;;;;6062957;23;20460;-68
2022/08/18 06:30:25;;;;;;;9.97;9.07;;;21.00;99.90;;;;;;6063438;23;20874;-68
2022/08/18 06:33:10;;;;;;;9.83;9.23;;;20.90;99.90;;;;;;6063209;23;21037;-68
2022/08/18 06:35:43;;;;;;;10.53;9.83;;;20.70;99.90;;;;;;6063057;23;20440;-68
2022/08/18 06:38:38;;;;;;;9.40;8.80;;;20.70;99.90;;;;;;6063506;23;20477;-67
2022/08/18 06:41:14;;;;;;;10.87;9.97;;;20.80;99.90;;;;;;6063301;23;20453;-68
2022/08/18 06:43:58;;;;;;;10.03;9.23;;;20.80;99.90;;;;;;6063446;23;20490;-68
2022/08/18 06:46:36;;;;;;;9.47;8.77;;;20.90;99.90;;;;;;6062862;23;20421;-68
2022/08/18 06:49:07;;;;;;;9.20;8.50;;;21.00;99.90;;;;;;6063461;23;20415;-68
2022/08/18 06:51:36;;;;;;;9.70;8.77;;;21.20;99.90;;;;;;6063226;23;20541;-68
2022/08/18 06:54:06;;;;;;;9.40;8.70;;;21.40;99.90;;;;;;6063105;23;20461;-68
2022/08/18 06:56:47;;;;;;;10.40;9.60;;;21.30;99.90;;;;;;6062981;23;20562;-68
2022/08/18 06:59:18;;;;;;;10.03;9.33;;;21.80;99.90;;;;;;6063321;23;20451;-69
2022/08/18 07:01:49;;;;;;;8.87;8.27;;;22.00;99.90;;;;;;6063085;23;20455;-69
2022/08/18 07:04:37;;;;;;;8.50;7.90;;;22.30;99.90;;;;;;6062762;23;20853;-68
2022/08/18 07:07:19;;;;;;;7.73;7.23;;;22.40;99.90;;;;;;6062986;23;20485;-69
2022/08/18 07:09:49;;;;;;;7.63;7.00;;;22.70;99.90;;;;;;6063125;23;20930;-68
2022/08/18 07:12:23;;;;;;;8.93;8.23;;;22.80;99.90;;;;;;6062902;23;20534;-68
2022/08/18 07:14:52;;;;;;;6.87;6.37;;;23.00;99.90;;;;;;6063049;23;20454;-68
2022/08/18 07:17:22;;;;;;;6.47;6.07;;;23.20;99.90;;;;;;6062727;23;20419;-68
2022/08/18 07:20:03;;;;;;;6.40;6.00;;;23.20;99.90;;;;;;6063176;23;20442;-68
2022/08/18 07:22:30;;;;;;;6.33;5.80;;;23.20;99.90;;;;;;6062899;23;20458;-68
2022/08/18 07:25:00;;;;;;;6.30;5.90;;;23.20;99.90;;;;;;6062544;23;20423;-68
2022/08/18 07:27:47;;;;;;;6.10;5.63;;;23.20;99.90;;;;;;6063189;23;20432;-69
2022/08/18 07:30:29;;;;;;;6.63;6.23;;;23.30;99.90;;;;;;6063293;23;20482;-68
2022/08/18 07:33:11;;;;;;;5.90;5.50;;;23.30;99.90;;;;;;6063042;23;20463;-69
2022/08/18 07:35:48;;;;;;;6.63;6.00;;;23.20;99.90;;;;;;6062139;23;20442;-68
2022/08/18 07:38:22;;;;;;;7.10;6.60;;;23.20;99.90;;;;;;6062208;23;20463;-68
2022/08/18 07:41:02;;;;;;;7.10;6.57;;;23.10;99.90;;;;;;6062722;23;20504;-68
2022/08/18 07:43:50;;;;;;;7.17;6.67;;;22.90;99.90;;;;;;6062878;23;20463;-69
2022/08/18 07:46:30;;;;;;;6.87;6.37;;;22.80;99.90;;;;;;6062984;23;20814;-68
2022/08/18 07:49:02;;;;;;;6.93;6.43;;;22.70;99.90;;;;;;6063178;23;20839;-68
2022/08/18 07:51:46;;;;;;;7.87;7.27;;;22.50;99.90;;;;;;6063491;23;20506;-68
2022/08/18 07:54:30;;;;;;;6.80;6.30;;;22.30;99.90;;;;;;6064495;23;20419;-68
2022/08/18 07:57:10;;;;;;;7.47;6.87;;;22.20;99.90;;;;;;6063388;23;20412;-68
2022/08/18 07:59:51;;;;;;;7.77;7.17;;;22.00;99.90;;;;;;6062727;23;20998;-68
2022/08/18 08:02:36;;;;;;;7.70;7.20;;;21.80;99.90;;;;;;6063515;23;20467;-68
2022/08/18 08:05:18;;;;;;;7.67;7.13;;;21.60;99.90;;;;;;6062887;23;20439;-68
2022/08/18 08:07:58;;;;;;;8.10;7.53;;;21.50;99.90;;;;;;6063810;23;20756;-68
2022/08/18 08:10:36;;;;;;;8.37;7.60;;;21.40;99.90;;;;;;6063244;23;20454;-69
2022/08/18 08:13:15;;;;;;;9.07;8.37;;;21.50;99.90;;;;;;6062557;23;20914;-68
2022/08/18 08:15:53;;;;;;;7.47;6.97;;;21.40;99.90;;;;;;6062567;23;20787;-68
2022/08/18 08:18:34;;;;;;;7.47;6.87;;;21.50;99.90;;;;;;6062614;23;20450;-68
2022/08/18 08:21:05;;;;;;;8.50;7.90;;;21.50;99.90;;;;;;6062700;23;20438;-69
2022/08/18 08:23:38;;;;;;;8.00;7.30;;;21.60;99.90;;;;;;6062687;23;20481;-68
2022/08/18 08:26:23;;;;;;;8.23;7.63;;;21.60;99.90;;;;;;6062449;23;20450;-68
2022/08/18 08:29:02;;;;;;;7.70;7.20;;;21.70;99.90;;;;;;6062264;23;20439;-68
2022/08/18 08:31:41;;;;;;;8.13;7.43;;;21.70;99.90;;;;;;6062001;23;20447;-68
2022/08/18 08:34:12;;;;;;;8.63;7.87;;;21.70;99.90;;;;;;6062869;23;20504;-68
2022/08/18 08:36:43;;;;;;;8.30;7.60;;;21.70;99.90;;;;;;6062291;23;20537;-68
2022/08/18 08:39:14;;;;;;;7.70;7.20;;;21.70;99.90;;;;;;6062622;23;20525;-68
2022/08/18 08:41:48;;;;;;;8.30;7.60;;;21.80;99.90;;;;;;6062444;23;20450;-69
2022/08/18 08:44:21;;;;;;;8.40;7.47;;;21.90;99.90;;;;;;6062819;23;20467;-68
2022/08/18 08:46:55;;;;;;;8.77;7.87;;;22.00;99.90;;;;;;6062408;23;20439;-68
2022/08/18 08:49:37;;;;;;;7.80;7.20;;;22.10;99.90;;;;;;6062130;23;20485;-68
2022/08/18 08:52:11;;;;;;;8.20;7.63;;;22.20;99.90;;;;;;6062537;23;20427;-68
2022/08/18 08:54:46;;;;;;;7.67;7.17;;;22.40;99.90;;;;;;6062778;23;20478;-69
2022/08/18 08:57:15;;;;;;;7.70;7.10;;;22.60;99.90;;;;;;6062678;23;20439;-68
2022/08/18 08:59:46;;;;;;;8.07;7.40;;;22.80;99.90;;;;;;6062322;23;20986;-69
2022/08/18 09:02:57;;;;;;;7.00;6.40;;;23.10;99.90;;;;;;6062721;23;20514;-69
2022/08/18 09:05:27;;;;;;;7.83;7.33;;;23.40;99.90;;;;;;5974333;24;20905;-68
2022/08/18 09:08:16;;;;;;;7.50;6.80;;;23.70;99.90;;;;;;5974884;24;20472;-69
2022/08/18 09:11:20;;;;;;;7.80;7.20;;;24.00;99.90;;;;;;6029322;23;20448;-69
2022/08/18 09:14:23;;;;;;;8.00;7.40;;;24.30;99.90;;;;;;6057937;23;20548;-68
2022/08/18 09:17:01;;;;;;;7.10;6.60;;;24.50;99.90;;;;;;6061789;23;20461;-68
2022/08/18 09:19:46;;;;;;;8.00;7.40;;;24.70;99.90;;;;;;6062359;23;20473;-69
2022/08/18 09:22:28;;;;;;;7.30;6.63;;;24.90;99.90;;;;;;6062532;23;20423;-68
2022/08/18 09:24:56;;;;;;;7.20;6.70;;;25.00;99.90;;;;;;6062256;23;20466;-68
2022/08/18 09:27:42;;;;;;;7.80;7.20;;;25.30;99.90;;;;;;6061932;23;20946;-68
2022/08/18 09:30:47;;;;;;;7.17;6.67;;;25.50;99.90;;;;;;6062278;23;20427;-68
2022/08/18 09:33:30;;;;;;;8.13;7.60;;;25.70;99.90;;;;;;6062400;23;20430;-68
2022/08/18 09:36:12;;;;;;;7.80;7.10;;;25.70;99.90;;;;;;6062179;23;20419;-68
2022/08/18 09:41:44;;;;;;;8.17;7.47;;;25.30;99.90;;;;;;6062126;23;20423;-68
2022/08/18 09:44:13;;;;;;;7.40;6.80;;;25.20;99.90;;;;;;6062117;23;20553;-68
2022/08/18 09:46:55;;;;;;;8.47;7.87;;;25.20;99.90;;;;;;6062209;23;20420;-68
2022/08/18 09:49:46;;;;;;;6.90;6.50;;;25.30;99.90;;;;;;6062650;23;20446;-68
2022/08/18 09:52:47;;;;;;;8.13;7.60;;;25.70;99.90;;;;;;6062536;23;20419;-69
2022/08/18 09:55:37;;;;;;;7.63;7.03;;;26.20;99.90;;;;;;6061585;23;20825;-69
2022/08/18 09:58:17;;;;;;;7.33;6.83;;;27.00;99.90;;;;;;6062249;23;20525;-69
2022/08/18 10:00:45;;;;;;;12.27;11.33;;;27.80;99.90;;;;;;6061966;23;20442;-68
2022/08/18 10:03:25;;;;;;;7.90;7.30;;;28.50;99.90;;;;;;6062463;23;20458;-69
2022/08/18 10:06:04;;;;;;;6.50;6.10;;;29.00;99.90;;;;;;6063233;23;20431;-69
2022/08/18 10:09:01;;;;;;;7.07;6.57;;;29.50;99.90;;;;;;6063493;23;20439;-69
2022/08/18 10:11:48;;;;;;;7.60;7.03;;;30.00;99.90;;;;;;6063118;23;20447;-69
2022/08/18 10:14:31;;;;;;;7.53;7.13;;;30.40;99.90;;;;;;6063765;23;20415;-69
2022/08/18 10:17:09;;;;;;;7.80;7.30;;;30.60;99.90;;;;;;6063062;23;20466;-69
2022/08/18 10:19:49;;;;;;;6.87;6.40;;;30.80;99.70;;;;;;6063384;23;20435;-69
2022/08/18 10:22:40;;;;;;;7.50;7.00;;;31.20;98.80;;;;;;6063410;23;20949;-69
2022/08/18 10:25:10;;;;;;;7.10;6.70;;;31.30;98.20;;;;;;6062998;23;20451;-69
2022/08/18 10:27:49;;;;;;;7.30;6.80;;;31.40;97.10;;;;;;6063318;23;20521;-69
2022/08/18 10:30:53;;;;;;;7.40;6.90;;;31.30;97.40;;;;;;6063124;23;20439;-69
2022/08/18 10:33:53;;;;;;;7.60;7.10;;;31.60;96.70;;;;;;6063354;23;20498;-69
2022/08/18 10:36:45;;;;;;;7.77;7.27;;;31.50;96.10;;;;;;6062962;23;20431;-69
2022/08/18 10:39:17;;;;;;;7.73;7.23;;;31.30;96.20;;;;;;6063653;23;20434;-69
2022/08/18 10:41:58;;;;;;;6.87;6.43;;;31.20;95.90;;;;;;6063614;23;20864;-69
2022/08/18 10:44:27;;;;;;;8.10;7.60;;;31.50;95.90;;;;;;6063378;23;20505;-69
2022/08/18 10:46:55;;;;;;;8.27;7.67;;;31.80;94.40;;;;;;6062642;23;20435;-69
2022/08/18 10:49:26;;;;;;;7.60;6.90;;;32.10;93.80;;;;;;6062996;23;20455;-69
2022/08/18 10:52:21;;;;;;;7.43;6.93;;;32.50;93.20;;;;;;6063906;23;20434;-69
2022/08/18 10:55:20;;;;;;;7.07;6.57;;;33.00;92.20;;;;;;6062935;23;20431;-69
2022/08/18 10:58:10;;;;;;;7.87;7.27;;;33.10;91.80;;;;;;6063841;23;20510;-69
2022/08/18 11:00:48;;;;;;;9.70;9.10;;;33.00;91.30;;;;;;6063013;23;20447;-69
2022/08/18 11:03:30;;;;;;;8.77;8.27;;;32.50;91.40;;;;;;6063285;23;20463;-69
2022/08/18 11:06:03;;;;;;;10.03;9.30;;;32.00;91.60;;;;;;6062922;23;20510;-69
2022/08/18 11:08:35;;;;;;;9.27;8.57;;;31.60;92.10;;;;;;6063196;23;20427;-68
2022/08/18 11:11:08;;;;;;;9.67;9.03;;;31.20;92.80;;;;;;6062794;23;20497;-69
2022/08/18 11:13:56;;;;;;;9.53;8.93;;;31.00;93.50;;;;;;6063088;23;20475;-69
2022/08/18 11:16:35;;;;;;;9.17;8.63;;;31.20;92.80;;;;;;6062910;23;20419;-69
2022/08/18 11:19:08;;;;;;;10.17;9.57;;;31.00;92.80;;;;;;6063223;23;20490;-69
2022/08/18 11:21:41;;;;;;;9.37;8.77;;;30.90;92.80;;;;;;6063344;23;20423;-69
2022/08/18 11:24:12;;;;;;;8.17;7.63;;;30.90;93.00;;;;;;6063253;23;20494;-69
2022/08/18 11:26:43;;;;;;;9.50;8.90;;;30.90;93.30;;;;;;6062681;23;20423;-69
2022/08/18 11:29:23;;;;;;;9.60;9.00;;;30.90;93.30;;;;;;6063212;23;20439;-69
2022/08/18 11:31:52;;;;;;;9.53;8.93;;;30.80;93.00;;;;;;6062502;23;20419;-69
2022/08/18 11:34:28;;;;;;;9.67;9.07;;;30.70;92.90;;;;;;6063064;23;20856;-69
2022/08/18 11:36:58;;;;;;;9.37;8.67;;;30.40;92.80;;;;;;6062587;23;20481;-69
2022/08/18 11:39:25;;;;;;;8.07;7.47;;;30.20;93.30;;;;;;6062950;23;20458;-69
2022/08/18 11:41:54;;;;;;;8.53;8.03;;;30.10;93.40;;;;;;6063098;23;20442;-69
2022/08/18 11:44:24;;;;;;;9.57;8.83;;;30.10;93.40;;;;;;6062710;23;20467;-69
2022/08/18 11:46:56;;;;;;;8.23;7.73;;;30.00;94.10;;;;;;6061970;23;20768;-69
2022/08/18 11:49:31;;;;;;;9.50;8.60;;;30.00;94.50;;;;;;6062925;23;20490;-69
2022/08/18 11:52:02;;;;;;;8.93;8.20;;;30.10;94.60;;;;;;6063049;23;20419;-69
2022/08/18 11:54:37;;;;;;;8.23;7.73;;;30.10;94.40;;;;;;6062931;23;20455;-69
2022/08/18 11:57:29;;;;;;;8.47;7.97;;;30.30;94.20;;;;;;6062877;23;20430;-69
2022/08/18 11:59:56;;;;;;;8.27;7.67;;;30.80;93.40;;;;;;6062571;23;20443;-69
2022/08/18 12:02:25;;;;;;;7.30;6.73;;;31.40;92.50;;;;;;6062897;23;20786;-69
2022/08/18 12:04:59;;;;;;;7.77;7.27;;;32.00;91.30;;;;;;6062681;23;20549;-69
2022/08/18 12:07:33;;;;;;;8.67;8.07;;;32.70;90.10;;;;;;6062918;23;20415;-69
2022/08/18 12:10:19;;;;;;;8.67;8.13;;;33.20;89.60;;;;;;6062312;23;21048;-69
2022/08/18 12:12:51;;;;;;;8.70;8.10;;;33.40;85.70;;;;;;6062673;23;20455;-69
2022/08/18 12:15:27;;;;;;;7.90;7.30;;;33.30;84.50;;;;;;6062545;23;20462;-69
2022/08/18 12:17:55;;;;;;;8.30;7.60;;;33.40;83.70;;;;;;6062984;23;20451;-69
2022/08/18 12:20:22;;;;;;;7.20;6.80;;;33.50;81.40;;;;;;6062758;23;20435;-69
2022/08/18 12:22:50;;;;;;;7.97;7.47;;;33.60;81.60;;;;;;6062289;23;20424;-69
2022/08/18 12:25:20;;;;;;;7.47;6.90;;;33.60;81.00;;;;;;6061629;23;20503;-69
2022/08/18 12:27:48;;;;;;;7.27;6.77;;;33.50;81.80;;;;;;6062665;23;20462;-69
2022/08/18 12:30:15;;;;;;;6.80;6.40;;;33.70;81.60;;;;;;6062963;23;20776;-69
2022/08/18 12:32:42;;;;;;;7.93;7.43;;;34.20;79.70;;;;;;6062741;23;20438;-69
2022/08/18 12:35:11;;;;;;;8.30;7.63;;;34.10;77.60;;;;;;6062210;23;20439;-69
2022/08/18 12:37:42;;;;;;;7.30;6.80;;;34.00;77.70;;;;;;6062418;23;20943;-69
2022/08/18 12:40:11;;;;;;;8.50;8.00;;;34.10;77.70;;;;;;6062910;23;20496;-69
2022/08/18 12:42:38;;;;;;;8.57;8.07;;;34.40;77.40;;;;;;6062564;23;20919;-69
2022/08/18 12:45:08;;;;;;;8.27;7.67;;;34.30;77.10;;;;;;6062158;23;21035;-69
2022/08/18 12:47:40;;;;;;;7.77;7.30;;;34.30;77.50;;;;;;6062904;23;20478;-69
2022/08/18 12:50:08;;;;;;;8.13;7.53;;;34.30;77.40;;;;;;6062846;23;20490;-69
2022/08/18 12:52:35;;;;;;;10.17;9.27;;;34.50;76.80;;;;;;6062573;23;20419;-69
2022/08/18 12:55:02;;;;;;;8.57;8.07;;;34.50;76.10;;;;;;6061986;23;20431;-69
2022/08/18 12:57:29;;;;;;;8.37;7.77;;;34.50;76.30;;;;;;6062830;23;20519;-69
2022/08/18 12:59:56;;;;;;;9.37;8.73;;;34.50;76.50;;;;;;6062458;23;20811;-69
2022/08/18 13:02:24;;;;;;;9.47;8.70;;;34.60;76.40;;;;;;6062400;23;20427;-69
2022/08/18 13:04:51;;;;;;;8.00;7.40;;;34.80;75.30;;;;;;6062136;23;20962;-69
2022/08/18 13:07:19;;;;;;;7.40;7.00;;;34.90;74.10;;;;;;6062250;23;20428;-69
2022/08/18 13:09:46;;;;;;;7.20;6.70;;;35.00;72.00;;;;;;6062465;23;21033;-69
2022/08/18 13:12:13;;;;;;;7.03;6.53;;;35.00;70.80;;;;;;6062555;23;20574;-69
2022/08/18 13:14:40;;;;;;;6.97;6.57;;;35.20;70.80;;;;;;6062284;23;20432;-69
2022/08/18 13:17:08;;;;;;;6.17;5.77;;;35.50;70.20;;;;;;6062062;23;20470;-69
2022/08/18 13:19:37;;;;;;;6.30;6.00;;;35.40;69.60;;;;;;6062424;23;20435;-70
2022/08/18 13:22:05;;;;;;;7.70;7.20;;;35.40;69.80;;;;;;6062944;23;20416;-69
2022/08/18 13:24:32;;;;;;;7.13;6.73;;;35.20;70.40;;;;;;6062539;23;20458;-69
2022/08/18 13:26:59;;;;;;;7.47;7.07;;;34.90;70.90;;;;;;6061780;23;20459;-69
2022/08/18 13:29:26;;;;;;;7.10;6.70;;;35.00;70.80;;;;;;6062084;23;20448;-69
2022/08/18 13:31:56;;;;;;;6.67;6.27;;;35.20;70.60;;;;;;6062658;23;20435;-69